createdAt,value
2022-09-13T17:32:39.143Z,22.30
2022-09-13T17:35:11.855Z,22.00
2022-09-13T17:37:41.450Z,22.00
2022-09-13T17:40:12.683Z,22.00
2022-09-13T17:42:40.846Z,22.00
2022-09-13T17:45:09.654Z,22.00
2022-09-13T17:47:43.379Z,22.00
2022-09-13T17:50:16.067Z,22.10
2022-09-13T17:52:44.032Z,22.00
2022-09-13T17:55:12.538Z,22.00
2022-09-13T17:57:40.877Z,21.90
2022-09-13T18:00:13.564Z,21.80
2022-09-13T18:02:45.293Z,21.80
2022-09-13T18:05:15.488Z,21.80
2022-09-13T18:07:43.516Z,21.70
2022-09-13T18:10:40.351Z,21.70
2022-09-13T18:13:01.458Z,21.70
2022-09-13T18:15:29.647Z,21.70
2022-09-13T18:17:58.981Z,21.70
2022-09-13T18:20:28.284Z,21.60
2022-09-13T18:22:56.268Z,21.60
2022-09-13T18:25:24.567Z,21.50
2022-09-13T18:27:52.628Z,21.50
2022-09-13T18:30:20.446Z,21.40
2022-09-13T18:32:51.759Z,21.40
2022-09-13T18:35:24.006Z,21.40
2022-09-13T18:37:52.169Z,21.40
2022-09-13T18:40:20.335Z,21.30
2022-09-13T18:42:51.813Z,21.20
2022-09-13T18:45:19.902Z,21.20
2022-09-13T18:47:50.828Z,21.20
2022-09-13T18:50:20.232Z,21.10
2022-09-13T18:52:48.215Z,21.10
2022-09-13T18:55:19.489Z,21.00
2022-09-13T18:57:50.316Z,21.00
2022-09-13T19:00:20.654Z,21.00
2022-09-13T19:03:10.773Z,20.90
2022-09-13T19:05:42.956Z,20.90
2022-09-13T19:08:11.365Z,21.00
2022-09-13T19:10:39.521Z,20.90
2022-09-13T19:13:11.315Z,20.90
2022-09-13T19:15:42.130Z,20.90
2022-09-13T19:18:10.140Z,20.80
2022-09-13T19:20:39.576Z,20.90
2022-09-13T19:23:07.596Z,20.80
2022-09-13T19:25:35.744Z,20.80
2022-09-13T19:28:04.270Z,20.80
2022-09-13T19:30:34.745Z,20.80
2022-09-13T19:33:02.729Z,20.80
2022-09-13T19:35:30.854Z,20.70
2022-09-13T19:38:00.167Z,20.70
2022-09-13T19:40:28.297Z,20.60
2022-09-13T19:42:56.470Z,20.60
2022-09-13T19:45:24.361Z,20.60
2022-09-13T19:48:34.668Z,20.50
2022-09-13T19:50:40.705Z,20.50
2022-09-13T19:53:12.588Z,20.50
2022-09-13T19:55:48.557Z,20.40
2022-09-13T19:58:17.541Z,20.40
2022-09-13T20:00:47.997Z,20.40
2022-09-13T20:03:17.007Z,20.40
2022-09-13T20:05:46.615Z,20.40
2022-09-13T20:08:16.069Z,20.40
2022-09-13T20:10:45.330Z,20.30
2022-09-13T20:13:13.327Z,20.40
2022-09-13T20:15:41.427Z,20.30
2022-09-13T20:18:13.215Z,20.30
2022-09-13T20:20:42.915Z,20.30
2022-09-13T20:24:15.476Z,20.30
2022-09-13T20:30:54.564Z,20.20
2022-09-13T20:33:22.949Z,20.20
2022-09-13T20:35:54.690Z,20.10
2022-09-13T20:38:24.969Z,20.10
2022-09-13T20:40:52.879Z,20.00
2022-09-13T20:43:23.561Z,20.10
2022-09-13T20:45:56.837Z,20.10
2022-09-13T20:48:25.096Z,20.20
2022-09-13T20:50:59.822Z,20.20
2022-09-13T20:53:29.350Z,20.10
2022-09-13T20:55:57.324Z,20.20
2022-09-13T20:58:28.487Z,20.10
2022-09-13T21:01:03.271Z,20.00
2022-09-13T21:03:31.576Z,20.10
2022-09-13T21:06:01.996Z,20.00
2022-09-13T21:08:42.089Z,20.00
2022-09-13T21:11:12.570Z,20.00
2022-09-13T21:13:41.938Z,20.00
2022-09-13T21:16:14.639Z,20.00
2022-09-13T21:18:44.301Z,20.00
2022-09-13T21:21:15.073Z,20.10
2022-09-13T21:23:45.196Z,20.10
2022-09-13T21:26:16.438Z,20.10
2022-09-13T21:28:45.319Z,20.10
2022-09-13T21:31:18.343Z,20.10
2022-09-13T21:33:54.999Z,20.10
2022-09-13T21:36:23.409Z,20.10
2022-09-13T21:38:54.495Z,20.10
2022-09-13T21:41:25.992Z,20.00
2022-09-13T21:43:54.371Z,20.00
2022-09-13T21:46:31.647Z,19.90
2022-09-13T21:49:03.077Z,19.90
2022-09-13T21:51:34.027Z,19.90
2022-09-13T21:54:06.771Z,19.80
2022-09-13T21:56:37.091Z,19.80
2022-09-13T21:59:07.076Z,19.80
2022-09-13T22:01:40.383Z,19.80
2022-09-13T22:04:09.471Z,19.80
2022-09-13T22:06:38.289Z,19.70
2022-09-13T22:09:10.608Z,19.70
2022-09-13T22:11:39.588Z,19.70
2022-09-13T22:14:09.826Z,19.70
2022-09-13T22:16:39.145Z,19.60
2022-09-13T22:19:09.500Z,19.60
2022-09-13T22:21:39.502Z,19.60
2022-09-13T22:24:19.131Z,19.60
2022-09-13T22:26:50.005Z,19.60
2022-09-13T22:29:19.363Z,19.60
2022-09-13T22:31:49.068Z,19.60
2022-09-13T22:34:18.730Z,19.70
2022-09-13T22:36:46.833Z,19.70
2022-09-13T22:39:17.779Z,19.70
2022-09-13T22:41:46.453Z,19.70
2022-09-13T22:44:14.474Z,19.70
2022-09-13T22:46:44.663Z,19.70
2022-09-13T22:49:14.284Z,19.70
2022-09-13T22:51:42.357Z,19.70
2022-09-13T22:54:10.269Z,19.80
2022-09-13T22:56:39.596Z,19.80
2022-09-13T22:59:09.464Z,19.80
2022-09-13T23:01:38.277Z,19.80
2022-09-13T23:04:06.787Z,19.70
2022-09-13T23:06:35.196Z,19.70
2022-09-13T23:09:05.343Z,19.50
2022-09-13T23:11:34.520Z,19.40
2022-09-13T23:14:06.702Z,19.30
2022-09-13T23:16:37.431Z,19.20
2022-09-13T23:19:05.831Z,19.10
2022-09-13T23:21:37.270Z,19.00
2022-09-13T23:24:07.027Z,18.90
2022-09-13T23:26:35.578Z,18.80
2022-09-13T23:29:05.852Z,18.90
2022-09-13T23:31:35.723Z,18.90
2022-09-13T23:34:06.521Z,18.90
2022-09-13T23:36:36.796Z,18.90
2022-09-13T23:39:06.535Z,18.90
2022-09-13T23:41:35.439Z,18.80
2022-09-13T23:44:05.621Z,18.70
2022-09-13T23:46:33.564Z,18.70
2022-09-13T23:49:01.570Z,18.70
2022-09-13T23:51:29.556Z,18.70
2022-09-13T23:53:58.327Z,18.70
2022-09-13T23:56:27.184Z,18.60
2022-09-13T23:58:57.190Z,18.70
